Time;durP1;ratioP1;P1;durP2;ratioP2;P2;SDS_P1;SDS_P2;PMS_P1;PMS_P2;Temp;Humidity;BMP_temperature;BMP_pressure;BME280_temperature;BME280_humidity;BME280_pressure;Samples;Min_cycle;Max_cycle;Signal;HPM_P1;HPM_P2
2022/08/29 00:01:11;;;;;;;8.25;1.73;;;16.00;99.90;;;;;;5077961;28;20059;-79
2022/08/29 00:03:37;;;;;;;5.43;1.80;;;16.00;99.90;;;;;;5069329;28;20045;-80
2022/08/29 00:06:03;;;;;;;4.22;1.60;;;16.10;99.90;;;;;;5083142;28;20044;-80
2022/08/29 00:08:30;;;;;;;5.03;0.95;;;16.10;99.90;;;;;;5095307;22;20044;-76
2022/08/29 00:10:56;;;;;;;2.95;0.95;;;16.10;99.90;;;;;;5073844;28;20047;-77
2022/08/29 00:13:22;;;;;;;4.38;1.77;;;16.10;99.90;;;;;;5075021;28;20040;-77
2022/08/29 00:15:48;;;;;;;8.35;1.60;;;16.00;99.90;;;;;;5075575;28;20048;-77
2022/08/29 00:18:16;;;;;;;8.15;1.08;;;16.00;99.90;;;;;;5075036;28;20474;-77
2022/08/29 00:20:42;;;;;;;5.95;1.38;;;16.00;99.90;;;;;;5074072;28;20079;-76
2022/08/29 00:23:08;;;;;;;3.35;1.30;;;16.00;99.90;;;;;;5074073;28;20472;-77
2022/08/29 00:25:35;;;;;;;4.75;1.23;;;16.00;99.90;;;;;;5073814;28;20563;-77
2022/08/29 00:28:01;;;;;;;4.00;0.98;;;16.00;99.90;;;;;;5074447;28;20093;-77
2022/08/29 00:30:27;;;;;;;3.42;0.70;;;16.00;99.90;;;;;;5057803;28;20040;-77
2022/08/29 00:32:53;;;;;;;2.13;0.80;;;16.00;99.90;;;;;;5074638;28;20069;-76
2022/08/29 00:35:28;;;;;;;5.50;2.10;;;16.10;99.90;;;;;;5074070;28;20047;-77
2022/08/29 00:37:54;;;;;;;3.83;1.48;;;16.00;99.90;;;;;;5092494;28;20058;-77
2022/08/29 00:40:28;;;;;;;2.80;0.93;;;16.10;99.90;;;;;;5073088;28;20040;-77
2022/08/29 00:42:54;;;;;;;3.83;1.00;;;16.10;99.90;;;;;;5074412;28;20172;-76
2022/08/29 00:45:19;;;;;;;4.45;1.58;;;16.10;99.90;;;;;;5074391;28;20497;-76
2022/08/29 00:47:59;;;;;;;3.03;1.20;;;16.00;99.90;;;;;;5093567;28;20078;-77
2022/08/29 00:50:39;;;;;;;3.13;1.55;;;16.10;99.90;;;;;;5078820;28;20040;-77
2022/08/29 00:53:09;;;;;;;5.20;1.45;;;16.10;99.90;;;;;;5078574;28;20044;-77
2022/08/29 00:55:36;;;;;;;4.93;2.10;;;16.10;99.90;;;;;;5072949;28;20052;-77
2022/08/29 00:58:13;;;;;;;2.85;1.15;;;16.10;99.90;;;;;;5057377;28;20040;-77
2022/08/29 01:00:40;;;;;;;4.35;1.48;;;16.10;99.90;;;;;;5073866;28;20047;-77
2022/08/29 01:03:06;;;;;;;3.47;0.70;;;16.10;99.90;;;;;;5074002;28;20497;-77
2022/08/29 01:05:33;;;;;;;5.28;1.38;;;16.10;99.90;;;;;;5073925;28;20048;-76
2022/08/29 01:07:59;;;;;;;2.38;0.90;;;16.10;99.90;;;;;;5073631;28;20036;-76
2022/08/29 01:13:10;;;;;;;6.25;1.90;;;16.10;99.90;;;;;;5072957;28;20040;-77
2022/08/29 01:15:39;;;;;;;4.93;1.08;;;16.00;99.90;;;;;;5073721;28;20059;-77
2022/08/29 01:18:06;;;;;;;4.20;1.10;;;16.00;99.90;;;;;;5073587;28;20048;-76
2022/08/29 01:21:00;;;;;;;6.03;1.75;;;16.00;99.90;;;;;;5073425;28;20498;-77
2022/08/29 01:23:32;;;;;;;4.65;1.55;;;16.00;99.90;;;;;;5073674;28;20097;-77
2022/08/29 01:26:01;;;;;;;4.25;1.27;;;16.00;99.90;;;;;;5072654;28;20089;-77
2022/08/29 01:28:40;;;;;;;4.55;1.40;;;16.00;99.90;;;;;;5073404;28;20040;-77
2022/08/29 01:31:10;;;;;;;5.55;1.85;;;16.00;99.90;;;;;;5072695;28;20040;-77
2022/08/29 01:33:42;;;;;;;3.35;1.45;;;15.90;99.90;;;;;;5073493;28;20600;-77
2022/08/29 01:36:09;;;;;;;5.45;1.35;;;15.90;99.90;;;;;;5073763;28;20485;-77
2022/08/29 01:38:36;;;;;;;4.72;1.27;;;15.90;99.90;;;;;;5073393;28;20494;-76
2022/08/29 01:41:02;;;;;;;5.65;1.42;;;15.90;99.90;;;;;;5055673;28;20710;-76
2022/08/29 01:43:28;;;;;;;4.53;1.40;;;15.90;99.90;;;;;;5072966;28;20075;-77
2022/08/29 01:45:54;;;;;;;4.32;1.20;;;15.90;99.90;;;;;;5073616;28;20402;-76
2022/08/29 01:48:20;;;;;;;5.00;1.73;;;15.90;99.90;;;;;;5073513;28;20539;-77
2022/08/29 01:50:47;;;;;;;7.82;2.05;;;15.80;99.90;;;;;;5072297;28;20032;-76
2022/08/29 01:53:13;;;;;;;6.60;1.58;;;15.80;99.90;;;;;;5072466;28;20036;-77
2022/08/29 01:55:39;;;;;;;3.65;1.13;;;15.80;99.90;;;;;;5071905;28;20044;-77
2022/08/29 01:58:06;;;;;;;6.53;1.45;;;15.80;99.90;;;;;;5073154;28;20038;-77
2022/08/29 02:00:32;;;;;;;5.53;1.63;;;15.80;99.90;;;;;;5072658;28;20035;-77
2022/08/29 02:03:02;;;;;;;3.65;1.73;;;15.80;99.90;;;;;;5069402;28;20532;-77
2022/08/29 02:05:28;;;;;;;3.85;1.30;;;15.80;99.90;;;;;;5072973;28;20044;-77
2022/08/29 02:07:54;;;;;;;6.20;1.52;;;15.80;99.90;;;;;;5069670;28;20043;-76
2022/08/29 02:10:20;;;;;;;4.68;1.27;;;15.80;99.90;;;;;;5062929;28;20108;-76
2022/08/29 02:12:45;;;;;;;3.33;1.30;;;15.80;99.90;;;;;;5066024;28;20558;-76
2022/08/29 02:15:12;;;;;;;5.28;1.45;;;15.90;99.90;;;;;;5066018;28;20491;-76
2022/08/29 02:17:38;;;;;;;5.47;1.50;;;15.90;99.90;;;;;;5061514;28;20048;-77
2022/08/29 02:20:07;;;;;;;4.60;1.48;;;15.80;99.90;;;;;;5069501;28;20486;-76
2022/08/29 02:22:38;;;;;;;4.20;1.38;;;15.90;99.90;;;;;;5069955;28;20080;-76
2022/08/29 02:25:40;;;;;;;5.03;1.83;;;15.90;99.90;;;;;;5069571;28;20094;-77
2022/08/29 02:27:52;;;;;;;4.50;1.58;;;15.80;99.90;;;;;;5061484;28;20053;-76
2022/08/29 02:30:21;;;;;;;5.28;1.38;;;15.80;99.90;;;;;;5043426;28;20525;-76
2022/08/29 02:32:47;;;;;;;4.90;1.10;;;15.80;99.90;;;;;;5056855;28;20103;-77
2022/08/29 02:35:13;;;;;;;4.70;1.80;;;15.80;99.90;;;;;;5073494;28;20072;-77
2022/08/29 02:37:39;;;;;;;6.82;1.60;;;15.90;99.90;;;;;;5073444;28;20036;-76
2022/08/29 02:40:05;;;;;;;5.93;1.75;;;15.80;99.90;;;;;;5073328;28;20044;-77
2022/08/29 02:42:31;;;;;;;4.35;2.15;;;15.90;99.90;;;;;;5073120;28;20086;-77
2022/08/29 02:45:00;;;;;;;5.38;1.40;;;15.80;99.90;;;;;;5069753;28;20049;-77
2022/08/29 02:47:26;;;;;;;3.63;1.60;;;15.80;99.90;;;;;;5073039;28;20040;-77
2022/08/29 02:49:51;;;;;;;4.85;0.90;;;15.80;99.90;;;;;;5055822;28;20422;-77
2022/08/29 02:52:17;;;;;;;7.30;1.92;;;15.80;99.90;;;;;;5073368;28;20040;-77
2022/08/29 02:54:43;;;;;;;3.42;1.92;;;15.80;99.90;;;;;;5073167;28;20044;-77
2022/08/29 02:57:08;;;;;;;6.85;1.60;;;15.80;99.90;;;;;;5073446;28;20494;-77
2022/08/29 02:59:34;;;;;;;6.60;2.30;;;15.80;99.90;;;;;;5072843;28;20067;-77
2022/08/29 03:02:00;;;;;;;2.50;1.02;;;15.80;99.90;;;;;;5064015;28;20418;-77
2022/08/29 03:04:25;;;;;;;7.20;1.55;;;15.80;99.90;;;;;;5062174;28;20024;-78
2022/08/29 03:06:52;;;;;;;3.67;1.30;;;15.80;99.90;;;;;;5075839;28;20051;-77
2022/08/29 03:09:17;;;;;;;4.90;2.20;;;15.80;99.90;;;;;;5074868;28;20504;-77
2022/08/29 03:11:43;;;;;;;4.65;1.08;;;15.80;99.90;;;;;;5073151;28;20088;-77
2022/08/29 03:14:09;;;;;;;5.53;1.20;;;15.80;99.90;;;;;;5073138;28;20032;-77
2022/08/29 03:16:34;;;;;;;4.80;1.23;;;15.70;99.90;;;;;;5075311;28;20044;-77
2022/08/29 03:19:00;;;;;;;3.67;1.42;;;15.70;99.90;;;;;;5072278;28;20044;-77
2022/08/29 03:21:26;;;;;;;5.28;0.82;;;15.70;99.90;;;;;;5072708;28;20110;-77
2022/08/29 03:23:55;;;;;;;4.90;1.10;;;15.80;99.90;;;;;;5075457;28;20051;-76
2022/08/29 03:26:20;;;;;;;4.93;1.63;;;15.70;99.90;;;;;;5075147;28;20040;-77
2022/08/29 03:28:46;;;;;;;4.22;1.30;;;15.70;99.90;;;;;;5059418;28;20035;-77
2022/08/29 03:31:11;;;;;;;5.15;1.48;;;15.70;99.90;;;;;;5074574;28;20097;-77
2022/08/29 03:33:37;;;;;;;4.03;1.73;;;15.70;99.90;;;;;;5075623;28;20044;-77
2022/08/29 03:36:04;;;;;;;7.95;2.75;;;15.60;99.90;;;;;;5072365;28;20070;-77
2022/08/29 03:38:30;;;;;;;8.13;1.00;;;15.60;99.90;;;;;;5072070;28;20414;-77
2022/08/29 03:40:55;;;;;;;4.13;1.63;;;15.60;99.90;;;;;;5072025;28;20066;-77
2022/08/29 03:43:21;;;;;;;4.45;1.27;;;15.60;99.90;;;;;;5075278;28;20047;-77
2022/08/29 03:45:48;;;;;;;6.32;1.23;;;15.60;99.90;;;;;;5075478;28;20047;-77
2022/08/29 03:48:14;;;;;;;3.88;1.88;;;15.60;99.90;;;;;;5057061;28;20028;-77
2022/08/29 03:50:40;;;;;;;10.80;2.15;;;15.60;99.90;;;;;;5074185;28;20043;-76
2022/08/29 03:53:06;;;;;;;4.38;1.55;;;15.50;99.90;;;;;;5072437;28;20375;-76
2022/08/29 03:55:32;;;;;;;6.13;1.38;;;15.50;99.90;;;;;;5080079;28;20040;-77
2022/08/29 03:57:57;;;;;;;6.68;1.58;;;15.40;99.90;;;;;;5074098;28;20169;-76
2022/08/29 04:00:23;;;;;;;4.93;1.45;;;15.40;99.90;;;;;;5074777;28;20040;-77
2022/08/29 04:02:52;;;;;;;4.75;1.67;;;15.50;99.90;;;;;;5075482;28;20040;-77
2022/08/29 04:05:18;;;;;;;3.70;1.05;;;15.50;99.90;;;;;;5074407;28;20517;-77
2022/08/29 04:07:56;;;;;;;5.28;2.13;;;15.40;99.90;;;;;;5082610;28;20502;-77
2022/08/29 04:10:27;;;;;;;5.55;2.17;;;15.50;99.90;;;;;;5075038;28;20138;-77
2022/08/29 04:12:53;;;;;;;6.68;1.88;;;15.50;99.90;;;;;;5075154;28;20089;-77
2022/08/29 04:15:19;;;;;;;4.47;1.67;;;15.50;99.90;;;;;;5074488;28;20043;-77
2022/08/29 04:17:45;;;;;;;4.28;1.38;;;15.50;99.90;;;;;;5074911;28;20048;-77
2022/08/29 04:20:12;;;;;;;4.88;1.38;;;15.50;99.90;;;;;;5077133;28;20032;-77
2022/08/29 04:22:40;;;;;;;8.75;1.63;;;15.50;99.90;;;;;;5079710;28;20058;-77
2022/08/29 04:25:09;;;;;;;7.85;2.00;;;15.50;99.90;;;;;;5077013;28;20044;-77
2022/08/29 04:27:35;;;;;;;5.45;1.30;;;15.50;99.90;;;;;;5074534;28;20089;-76
2022/08/29 04:30:11;;;;;;;5.95;1.20;;;15.50;99.90;;;;;;5071035;28;20076;-76
2022/08/29 04:32:36;;;;;;;7.75;1.63;;;15.50;99.90;;;;;;5072632;28;20063;-77
2022/08/29 04:35:03;;;;;;;5.60;1.73;;;15.40;99.90;;;;;;5070890;28;20044;-76
2022/08/29 04:37:28;;;;;;;6.65;1.70;;;15.40;99.90;;;;;;5070126;28;20033;-76
2022/08/29 04:39:54;;;;;;;7.53;2.25;;;15.40;99.90;;;;;;5070923;28;20181;-76
2022/08/29 04:42:20;;;;;;;5.20;1.70;;;15.40;99.90;;;;;;5071350;28;20044;-77
2022/08/29 04:44:46;;;;;;;7.85;1.45;;;15.40;99.90;;;;;;5072996;28;20537;-77
2022/08/29 04:47:12;;;;;;;5.00;1.20;;;15.50;99.90;;;;;;5066636;28;20036;-77
2022/08/29 04:49:38;;;;;;;6.13;1.85;;;15.50;99.90;;;;;;5074336;28;20051;-76
2022/08/29 04:52:04;;;;;;;5.25;1.30;;;15.50;99.90;;;;;;5052112;28;20032;-76
2022/08/29 04:54:30;;;;;;;4.57;1.20;;;15.40;99.90;;;;;;5065058;28;20039;-77
2022/08/29 04:56:58;;;;;;;3.08;1.30;;;15.40;99.90;;;;;;5070599;28;20125;-76
2022/08/29 04:59:24;;;;;;;6.03;1.48;;;15.40;99.90;;;;;;5070847;28;20157;-76
2022/08/29 05:01:49;;;;;;;6.07;1.65;;;15.40;99.90;;;;;;5070943;28;20129;-77
2022/08/29 05:04:15;;;;;;;3.15;1.25;;;15.40;99.90;;;;;;5071183;28;20087;-77
2022/08/29 05:06:40;;;;;;;3.55;1.23;;;15.40;99.90;;;;;;5072294;28;20052;-76
2022/08/29 05:09:06;;;;;;;4.45;1.17;;;15.40;99.90;;;;;;5072579;28;20543;-76
2022/08/29 05:11:32;;;;;;;6.15;1.30;;;15.40;99.90;;;;;;5072862;28;20397;-77
2022/08/29 05:13:58;;;;;;;6.47;1.45;;;15.50;99.90;;;;;;5073078;28;20481;-76
2022/08/29 05:16:24;;;;;;;5.93;1.42;;;15.50;99.90;;;;;;5073923;28;20044;-77
2022/08/29 05:18:49;;;;;;;4.53;1.35;;;15.60;99.90;;;;;;5074019;28;20547;-77
2022/08/29 05:21:26;;;;;;;4.50;1.10;;;15.60;99.90;;;;;;5073572;28;20036;-77
2022/08/29 05:23:55;;;;;;;4.25;1.52;;;15.60;99.90;;;;;;5073691;28;20152;-77
2022/08/29 05:26:20;;;;;;;6.25;1.45;;;15.60;99.90;;;;;;5073331;28;20051;-77
2022/08/29 05:28:46;;;;;;;6.40;1.48;;;15.70;99.90;;;;;;5073491;28;20398;-77
2022/08/29 05:31:13;;;;;;;5.10;1.40;;;15.70;99.90;;;;;;5073632;28;20090;-77
2022/08/29 05:33:39;;;;;;;4.50;1.42;;;15.80;99.90;;;;;;5073571;28;20036;-77
2022/08/29 05:36:05;;;;;;;6.35;1.40;;;15.80;99.90;;;;;;5073581;28;20048;-77
2022/08/29 05:38:31;;;;;;;5.97;2.15;;;15.80;99.90;;;;;;5073372;28;20044;-77
2022/08/29 05:40:56;;;;;;;3.45;0.77;;;15.80;99.90;;;;;;5073266;28;20429;-77
2022/08/29 05:43:22;;;;;;;4.10;1.20;;;15.90;99.90;;;;;;5073556;28;20084;-77
2022/08/29 05:45:47;;;;;;;4.32;1.15;;;15.90;99.90;;;;;;5072920;28;20052;-78
2022/08/29 05:48:13;;;;;;;6.63;1.40;;;16.00;99.90;;;;;;5073265;28;20139;-77
2022/08/29 05:50:41;;;;;;;6.82;2.80;;;16.10;99.90;;;;;;5073218;28;20047;-77
2022/08/29 05:53:08;;;;;;;3.90;1.50;;;16.10;99.90;;;;;;5073058;28;20035;-77
2022/08/29 05:55:38;;;;;;;4.45;1.42;;;16.20;99.90;;;;;;5073608;28;20062;-77
2022/08/29 05:58:04;;;;;;;6.13;1.90;;;16.30;99.90;;;;;;5073172;28;20047;-78
2022/08/29 06:00:29;;;;;;;4.68;1.13;;;16.40;99.90;;;;;;5073303;28;20139;-76
2022/08/29 06:02:55;;;;;;;2.92;1.13;;;16.50;99.90;;;;;;5072561;28;20039;-76
2022/08/29 06:05:20;;;;;;;5.78;1.33;;;16.60;99.90;;;;;;5073623;28;20587;-76
2022/08/29 06:07:47;;;;;;;4.40;1.13;;;16.70;99.90;;;;;;5093018;22;20051;-79
2022/08/29 06:10:12;;;;;;;5.43;1.55;;;16.80;99.90;;;;;;5071445;28;20055;-79
2022/08/29 06:12:38;;;;;;;4.43;1.15;;;16.90;99.90;;;;;;5069808;28;20127;-79
2022/08/29 06:15:04;;;;;;;4.90;1.10;;;17.00;99.90;;;;;;5056130;28;20044;-80
2022/08/29 06:17:30;;;;;;;7.28;1.52;;;17.00;99.90;;;;;;5032909;28;20116;-80
2022/08/29 06:19:56;;;;;;;4.95;1.58;;;17.20;99.90;;;;;;5034891;28;20439;-80
2022/08/29 06:22:21;;;;;;;4.15;0.93;;;17.20;99.90;;;;;;5034125;28;20107;-79
2022/08/29 06:24:50;;;;;;;10.00;1.77;;;17.30;99.90;;;;;;5031319;28;20045;-80
2022/08/29 06:27:16;;;;;;;8.23;1.05;;;17.40;99.90;;;;;;5032032;28;20057;-79
2022/08/29 06:29:41;;;;;;;5.38;1.48;;;17.50;99.90;;;;;;5036139;28;20090;-79
2022/08/29 06:32:07;;;;;;;5.30;1.13;;;17.60;99.90;;;;;;5054252;28;20041;-79
2022/08/29 06:34:32;;;;;;;9.95;1.52;;;17.70;99.90;;;;;;5052460;28;20210;-80
2022/08/29 06:36:58;;;;;;;5.13;0.80;;;17.80;99.90;;;;;;5052754;28;20052;-79
2022/08/29 06:39:24;;;;;;;3.75;0.73;;;17.90;99.90;;;;;;5052830;28;20104;-79
2022/08/29 06:41:49;;;;;;;3.08;0.77;;;18.10;99.90;;;;;;5053706;28;20041;-79
2022/08/29 06:44:15;;;;;;;4.78;1.00;;;18.20;99.90;;;;;;5053688;28;20049;-79
2022/08/29 06:46:45;;;;;;;5.82;1.95;;;18.40;99.90;;;;;;5053071;28;20045;-79
2022/08/29 06:49:13;;;;;;;4.20;1.10;;;18.50;99.90;;;;;;5053007;28;20037;-79
2022/08/29 06:51:41;;;;;;;3.50;1.10;;;18.50;99.90;;;;;;5054093;28;20051;-79
2022/08/29 06:54:08;;;;;;;5.70;1.42;;;18.60;99.90;;;;;;5053851;28;20048;-79
2022/08/29 06:56:35;;;;;;;3.30;1.23;;;18.70;99.90;;;;;;5054105;28;20049;-79
2022/08/29 06:59:01;;;;;;;3.97;1.42;;;18.80;99.90;;;;;;5052222;28;20127;-79
2022/08/29 07:01:26;;;;;;;4.53;0.70;;;18.80;99.90;;;;;;5053466;28;20080;-79
2022/08/29 07:03:53;;;;;;;5.60;0.73;;;18.90;99.90;;;;;;5036642;28;20195;-79
2022/08/29 07:06:19;;;;;;;8.60;1.52;;;18.80;99.90;;;;;;5033969;28;20497;-79
2022/08/29 07:08:45;;;;;;;5.25;1.13;;;18.90;99.90;;;;;;5068438;28;20032;-78
2022/08/29 07:11:11;;;;;;;10.27;2.30;;;19.00;99.90;;;;;;5054536;28;20032;-79
2022/08/29 07:13:38;;;;;;;7.72;1.35;;;19.20;99.90;;;;;;5072128;28;20554;-79
2022/08/29 07:16:13;;;;;;;5.53;1.38;;;19.20;99.90;;;;;;5056986;28;20094;-79
2022/08/29 07:18:39;;;;;;;4.03;1.65;;;19.20;99.90;;;;;;5057100;28;20045;-79
2022/08/29 07:21:09;;;;;;;9.57;1.40;;;19.20;99.90;;;;;;5055071;28;20386;-81
2022/08/29 07:23:36;;;;;;;9.68;1.67;;;19.30;99.90;;;;;;5056064;28;20079;-80
2022/08/29 07:26:15;;;;;;;4.65;1.58;;;19.30;99.90;;;;;;5056847;28;20223;-80
2022/08/29 07:28:41;;;;;;;5.63;1.52;;;19.30;99.90;;;;;;5056185;28;20044;-81
2022/08/29 07:31:08;;;;;;;8.02;1.73;;;19.30;99.90;;;;;;5055610;28;20040;-81
2022/08/29 07:33:33;;;;;;;7.40;1.30;;;19.40;99.90;;;;;;5056571;28;20041;-81
2022/08/29 07:35:59;;;;;;;6.70;1.20;;;19.40;99.90;;;;;;5055453;28;21635;-81
2022/08/29 07:38:27;;;;;;;5.90;1.50;;;19.50;99.90;;;;;;5055795;28;20048;-82
2022/08/29 07:41:01;;;;;;;7.82;2.00;;;19.60;99.90;;;;;;5056578;28;20048;-80
2022/08/29 07:43:26;;;;;;;6.63;1.58;;;19.60;99.90;;;;;;5039393;28;20037;-80
2022/08/29 07:45:53;;;;;;;6.75;1.98;;;19.60;99.90;;;;;;5057437;28;20147;-80
2022/08/29 07:48:20;;;;;;;7.88;1.70;;;19.50;99.90;;;;;;5057879;28;20075;-80
2022/08/29 07:50:47;;;;;;;8.07;2.10;;;19.50;99.90;;;;;;5056554;28;20118;-80
2022/08/29 07:53:12;;;;;;;7.43;1.00;;;19.50;99.90;;;;;;5056679;28;20530;-80
2022/08/29 07:55:38;;;;;;;5.03;1.80;;;19.60;99.90;;;;;;5074725;28;20084;-79
2022/08/29 07:58:04;;;;;;;5.47;1.65;;;19.70;99.90;;;;;;5039203;28;20376;-79
2022/08/29 08:00:30;;;;;;;7.78;1.38;;;19.90;99.90;;;;;;5056467;28;20044;-79
2022/08/29 08:02:55;;;;;;;6.63;1.70;;;19.90;99.90;;;;;;5056739;28;20032;-79
2022/08/29 08:05:21;;;;;;;5.05;1.17;;;20.00;99.90;;;;;;5055652;28;20048;-80
2022/08/29 08:07:48;;;;;;;6.88;1.58;;;20.00;99.90;;;;;;5018188;28;1067231;-79
2022/08/29 08:10:16;;;;;;;7.75;2.13;;;20.10;99.90;;;;;;5058952;28;20041;-79
2022/08/29 08:12:42;;;;;;;10.38;3.30;;;20.10;99.90;;;;;;5054363;28;20044;-79
2022/08/29 08:15:08;;;;;;;6.03;2.25;;;20.00;99.90;;;;;;5053683;28;20077;-79
2022/08/29 08:17:34;;;;;;;6.55;2.03;;;20.00;99.90;;;;;;5053862;28;20055;-79
2022/08/29 08:20:01;;;;;;;9.73;2.70;;;20.00;99.90;;;;;;5038143;28;20041;-79
2022/08/29 08:22:26;;;;;;;10.55;2.55;;;20.00;99.90;;;;;;5053848;28;20037;-78
2022/08/29 08:24:52;;;;;;;9.43;2.20;;;20.00;99.90;;;;;;5053786;28;20120;-79
2022/08/29 08:27:17;;;;;;;5.70;1.88;;;20.20;99.90;;;;;;5037337;28;20044;-79
2022/08/29 08:29:44;;;;;;;4.05;1.45;;;20.50;99.90;;;;;;5043848;28;20041;-79
2022/08/29 08:32:09;;;;;;;6.72;2.30;;;20.70;99.90;;;;;;5054571;28;20041;-80
2022/08/29 08:34:35;;;;;;;7.05;2.28;;;21.00;99.90;;;;;;5059888;28;20054;-79
2022/08/29 08:37:00;;;;;;;7.18;1.50;;;21.10;99.90;;;;;;5059420;28;20513;-79
2022/08/29 08:39:26;;;;;;;7.07;1.63;;;21.20;99.90;;;;;;5076735;28;20379;-80
2022/08/29 08:42:04;;;;;;;8.75;2.75;;;21.50;99.90;;;;;;5058381;28;20041;-80
2022/08/29 08:44:50;;;;;;;8.00;3.40;;;21.70;99.90;;;;;;5059446;28;20052;-79
2022/08/29 08:47:25;;;;;;;8.95;2.72;;;21.80;99.90;;;;;;5043173;28;20150;-79
2022/08/29 08:49:57;;;;;;;10.85;2.47;;;21.80;99.90;;;;;;5058330;28;20045;-79
2022/08/29 08:52:31;;;;;;;9.75;2.35;;;22.00;99.90;;;;;;5058384;28;20040;-80
2022/08/29 08:55:07;;;;;;;7.30;2.13;;;22.20;99.90;;;;;;5056928;28;20075;-81
2022/08/29 08:57:42;;;;;;;7.70;2.92;;;22.30;99.90;;;;;;5056761;28;20161;-80
2022/08/29 09:00:10;;;;;;;8.25;1.52;;;22.50;99.90;;;;;;5055989;28;20089;-80
2022/08/29 09:02:36;;;;;;;6.82;2.35;;;22.50;99.90;;;;;;5055785;28;20044;-80
2022/08/29 09:05:20;;;;;;;5.03;2.00;;;22.60;99.90;;;;;;5038142;28;20099;-80
2022/08/29 09:07:59;;;;;;;9.65;2.47;;;22.80;99.90;;;;;;5036303;28;20037;-80
2022/08/29 09:10:47;;;;;;;7.47;2.08;;;22.90;99.90;;;;;;5020046;28;20549;-80
2022/08/29 09:13:45;;;;;;;7.65;1.83;;;23.00;99.90;;;;;;5036426;28;20099;-80
2022/08/29 09:16:21;;;;;;;5.18;2.00;;;22.90;99.90;;;;;;5035055;28;20037;-81
2022/08/29 09:18:47;;;;;;;10.43;1.98;;;22.90;99.90;;;;;;5035624;28;20049;-81
2022/08/29 09:21:18;;;;;;;4.32;1.55;;;22.80;99.90;;;;;;5055478;28;20043;-82
2022/08/29 09:23:47;;;;;;;8.55;3.22;;;22.80;99.90;;;;;;5073777;28;20062;-82
2022/08/29 09:26:16;;;;;;;7.63;1.50;;;22.70;99.90;;;;;;5054624;28;20044;-82
2022/08/29 09:28:42;;;;;;;5.55;1.67;;;22.40;99.90;;;;;;5055473;28;20071;-79
2022/08/29 09:31:25;;;;;;;4.57;1.48;;;22.10;99.90;;;;;;5039173;28;20505;-79
2022/08/29 09:33:57;;;;;;;5.50;1.85;;;22.00;99.90;;;;;;5039657;28;20036;-79
2022/08/29 09:36:43;;;;;;;6.53;1.40;;;21.90;99.90;;;;;;5052051;28;20028;-79
2022/08/29 09:39:20;;;;;;;6.43;2.13;;;22.00;99.90;;;;;;5033289;28;20057;-79
2022/08/29 09:41:58;;;;;;;6.40;1.45;;;22.00;99.90;;;;;;5034358;28;20040;-78
2022/08/29 09:44:32;;;;;;;5.60;2.00;;;22.10;99.90;;;;;;5035804;28;20514;-79
2022/08/29 09:47:23;;;;;;;7.38;1.90;;;22.10;99.90;;;;;;5034505;28;20041;-79
2022/08/29 09:50:23;;;;;;;5.18;1.88;;;22.20;99.90;;;;;;5034211;28;20041;-79
2022/08/29 09:52:53;;;;;;;12.82;2.55;;;22.20;99.90;;;;;;5035471;28;20051;-79
2022/08/29 09:55:34;;;;;;;10.00;1.90;;;22.20;99.90;;;;;;5069414;28;20052;-79
2022/08/29 09:58:27;;;;;;;7.60;2.17;;;22.20;99.90;;;;;;5055487;28;20135;-79
2022/08/29 10:01:03;;;;;;;7.35;1.65;;;22.10;99.90;;;;;;5056751;28;20560;-81
2022/08/29 10:03:33;;;;;;;9.27;3.72;;;22.10;99.90;;;;;;5038329;28;20041;-81
2022/08/29 10:06:11;;;;;;;8.32;1.85;;;22.30;99.90;;;;;;5054029;28;20055;-81
2022/08/29 10:08:39;;;;;;;9.60;2.13;;;22.50;99.90;;;;;;5054768;28;20048;-81
2022/08/29 10:11:07;;;;;;;6.60;2.22;;;22.50;99.90;;;;;;5053076;28;20039;-82
2022/08/29 10:13:55;;;;;;;6.30;2.17;;;22.50;99.90;;;;;;5038991;28;20041;-82
2022/08/29 10:16:53;;;;;;;8.77;2.03;;;22.20;99.90;;;;;;5054794;28;20048;-82
2022/08/29 10:19:26;;;;;;;5.25;1.80;;;22.00;99.90;;;;;;5042057;28;20064;-83
2022/08/29 10:22:24;;;;;;;8.43;1.75;;;21.90;99.90;;;;;;5038099;28;20036;-83
2022/08/29 10:25:01;;;;;;;7.32;2.33;;;21.70;99.90;;;;;;5055395;28;20127;-82
2022/08/29 10:27:30;;;;;;;9.80;2.78;;;21.60;99.90;;;;;;5054306;28;20131;-83
2022/08/29 10:30:06;;;;;;;8.65;2.15;;;21.50;99.90;;;;;;5054173;28;20505;-83
2022/08/29 10:33:00;;;;;;;8.20;1.63;;;21.40;99.90;;;;;;5037988;28;20079;-82
2022/08/29 10:35:35;;;;;;;6.82;2.40;;;21.30;99.90;;;;;;5055823;28;20521;-81
2022/08/29 10:38:42;;;;;;;6.85;1.80;;;21.40;99.90;;;;;;5039030;28;20052;-81
2022/08/29 10:41:18;;;;;;;4.90;1.70;;;21.60;99.90;;;;;;5054899;28;20040;-82
2022/08/29 10:44:10;;;;;;;4.95;1.63;;;21.80;99.90;;;;;;5054865;28;20448;-82
2022/08/29 10:46:59;;;;;;;4.57;1.83;;;21.80;99.90;;;;;;5054691;28;20072;-81
2022/08/29 10:49:30;;;;;;;6.88;1.70;;;22.00;99.90;;;;;;5036091;28;20028;-82
2022/08/29 10:52:22;;;;;;;3.67;1.65;;;22.20;99.90;;;;;;5043159;28;20058;-82
2022/08/29 10:55:09;;;;;;;8.90;1.65;;;22.40;99.90;;;;;;5058205;28;20069;-82
2022/08/29 10:57:59;;;;;;;5.38;1.40;;;22.50;99.90;;;;;;5061482;28;20048;-82
2022/08/29 11:00:53;;;;;;;8.63;1.80;;;22.60;99.90;;;;;;5058442;28;20041;-82
2022/08/29 11:03:34;;;;;;;8.93;1.85;;;22.60;99.90;;;;;;5060363;28;20058;-81
2022/08/29 11:06:19;;;;;;;7.60;2.47;;;22.50;99.90;;;;;;5061580;28;20068;-80
2022/08/29 11:09:00;;;;;;;8.05;1.90;;;22.60;99.90;;;;;;5063394;28;20056;-80
2022/08/29 11:11:29;;;;;;;6.93;2.80;;;22.70;99.90;;;;;;5063689;28;20075;-80
2022/08/29 11:13:59;;;;;;;8.30;2.47;;;22.80;99.90;;;;;;5065184;28;20055;-80
2022/08/29 11:16:35;;;;;;;7.07;1.83;;;22.80;99.90;;;;;;5064066;28;20040;-80
2022/08/29 11:19:15;;;;;;;7.93;2.55;;;22.70;99.90;;;;;;5063148;28;20048;-80
2022/08/29 11:21:57;;;;;;;3.80;1.58;;;22.70;99.90;;;;;;5062485;28;20044;-80
2022/08/29 11:24:27;;;;;;;8.63;2.10;;;22.80;99.90;;;;;;5062469;28;20033;-80
2022/08/29 11:27:04;;;;;;;10.23;2.28;;;22.80;99.90;;;;;;5062660;28;20048;-80
2022/08/29 11:29:41;;;;;;;5.25;1.40;;;22.90;99.90;;;;;;5064229;28;20047;-80
2022/08/29 11:32:18;;;;;;;4.55;1.25;;;23.10;99.90;;;;;;5065704;28;20403;-81
2022/08/29 11:35:04;;;;;;;5.32;2.00;;;23.20;99.90;;;;;;5064388;28;20075;-80
2022/08/29 11:37:51;;;;;;;3.70;1.50;;;23.40;99.90;;;;;;5063216;28;20512;-81
2022/08/29 11:41:00;;;;;;;5.07;1.70;;;23.80;99.90;;;;;;5054054;28;20072;-80
2022/08/29 11:43:29;;;;;;;9.52;2.35;;;23.80;99.90;;;;;;5059743;28;20041;-80
2022/08/29 11:45:58;;;;;;;4.03;1.77;;;23.80;99.90;;;;;;5041722;28;20048;-81
2022/08/29 11:48:45;;;;;;;4.10;1.13;;;23.90;99.90;;;;;;5060468;28;20080;-81
2022/08/29 11:51:30;;;;;;;4.50;1.98;;;24.00;99.90;;;;;;5026382;28;20029;-81
2022/08/29 11:54:15;;;;;;;;;;;24.10;99.90;;;;;;5042974;28;20045;-81
2022/08/29 11:56:41;;;;;;;2.65;1.55;;;24.00;99.90;;;;;;5038036;28;20371;-81
2022/08/29 11:59:06;;;;;;;3.10;0.90;;;24.20;99.90;;;;;;5037578;28;20045;-81
2022/08/29 12:01:35;;;;;;;3.63;1.17;;;24.30;99.90;;;;;;5038597;28;20704;-81
2022/08/29 12:04:04;;;;;;;4.05;1.20;;;24.50;99.90;;;;;;5037644;28;20075;-81
2022/08/29 12:06:41;;;;;;;4.72;1.20;;;24.60;99.90;;;;;;5039824;28;20045;-81
2022/08/29 12:09:12;;;;;;;4.93;2.03;;;24.90;99.90;;;;;;5041723;28;20083;-81
2022/08/29 12:12:04;;;;;;;4.90;1.38;;;25.10;99.90;;;;;;5057359;28;20073;-81
2022/08/29 12:14:39;;;;;;;3.28;1.60;;;25.20;99.90;;;;;;5057386;28;20067;-81
2022/08/29 12:17:08;;;;;;;5.53;1.20;;;25.10;99.90;;;;;;5057243;28;20401;-81
2022/08/29 12:19:49;;;;;;;4.40;1.27;;;25.00;99.90;;;;;;5040925;28;20111;-81
2022/08/29 12:22:52;;;;;;;6.20;1.95;;;25.20;99.90;;;;;;5056592;28;20032;-81
2022/08/29 12:25:27;;;;;;;6.93;0.93;;;25.20;99.90;;;;;;5058086;28;20109;-81
2022/08/29 12:27:59;;;;;;;;;;;25.10;99.90;;;;;;5056885;28;20536;-81
2022/08/29 12:30:27;;;;;;;6.00;1.42;;;25.00;99.90;;;;;;5057681;28;20420;-82
2022/08/29 12:33:02;;;;;;;4.30;1.20;;;25.20;99.90;;;;;;5057046;28;20033;-81
2022/08/29 12:35:44;;;;;;;5.88;1.70;;;25.20;99.90;;;;;;5056368;28;20426;-81
2022/08/29 12:38:30;;;;;;;5.30;1.33;;;25.20;99.90;;;;;;5057331;28;20090;-79
2022/08/29 12:41:30;;;;;;;4.57;0.65;;;25.10;99.90;;;;;;5036261;28;20456;-79
2022/08/29 12:44:00;;;;;;;6.22;0.95;;;25.30;99.90;;;;;;5036239;28;20037;-79
2022/08/29 12:46:41;;;;;;;7.00;1.40;;;25.40;99.90;;;;;;5020427;28;20496;-80
2022/08/29 12:49:16;;;;;;;3.22;0.70;;;25.50;99.70;;;;;;5035744;28;20392;-80
2022/08/29 12:51:46;;;;;;;4.63;1.05;;;25.50;99.40;;;;;;5037647;28;20561;-79
2022/08/29 12:54:11;;;;;;;3.55;0.93;;;25.40;98.10;;;;;;5037081;28;20033;-79
2022/08/29 12:56:47;;;;;;;2.63;0.60;;;25.30;97.40;;;;;;5044351;28;20045;-79
2022/08/29 12:59:18;;;;;;;5.75;0.80;;;25.20;98.00;;;;;;5056095;28;20047;-79
2022/08/29 13:01:48;;;;;;;5.72;1.40;;;25.30;97.80;;;;;;5056060;28;20036;-80
2022/08/29 13:04:17;;;;;;;3.72;1.05;;;25.10;98.10;;;;;;5056967;28;20086;-79
2022/08/29 13:06:59;;;;;;;6.95;1.00;;;24.90;98.80;;;;;;5055522;28;20131;-79
2022/08/29 13:09:39;;;;;;;4.60;0.98;;;24.80;98.90;;;;;;5055254;28;20047;-79